Chitose, Japan
Current Conditions -  °F | °C
As of 7:00 AM on Tuesday 23 Dec 2014 (Local Time) from RJCC Reporting Station
Broken Clouds Broken Clouds  
Wind Chill: 21°   Ceiling: 5000
Heat Index: 21°   Visibility: 6mi
Dew Point: 10°   Wind: 3mph
Humidity: 63%   Direction: 150°SSE
Pressure: 29.74"   Gusts: NA
Location:  42.82°N, 141.64°E
Report Text: RJCC 222200Z 15003KT 9999 FEW010 BKN050 M06/M12 Q1007
Loading
Personal Weather Stations






























Interactive Weather Map New forecast layout! Learn more

10-Day Weather Forecast

Advertisements
Track Severe Weather on mobile